createdAt,value
2019-02-23T00:01:48.949Z,81.74
2019-02-23T00:04:35.300Z,81.38
2019-02-23T00:07:03.107Z,81.38
2019-02-23T00:09:49.799Z,81.22
2019-02-23T00:12:36.195Z,81.94
2019-02-23T00:18:09.494Z,82.03
2019-02-23T00:20:40.845Z,81.66
2019-02-23T00:23:27.268Z,81.42
2019-02-23T00:25:54.958Z,81.38
2019-02-23T00:28:22.582Z,81.38
2019-02-23T00:31:08.924Z,81.74
2019-02-23T00:33:36.447Z,81.47
2019-02-23T00:36:23.173Z,82.09
2019-02-23T00:38:52.332Z,82.09
2019-02-23T00:41:31.748Z,81.33
2019-02-23T00:43:49.412Z,81.33
2019-02-23T00:46:35.752Z,82.07
2019-02-23T00:51:55.326Z,82.20
2019-02-23T00:57:29.656Z,81.58
2019-02-23T00:59:57.308Z,81.97
2019-02-23T01:02:38.879Z,82.03
2019-02-23T01:05:13.029Z,81.82
2019-02-23T01:07:59.633Z,81.83
2019-02-23T01:10:27.266Z,81.83
2019-02-23T01:12:54.905Z,82.21
2019-02-23T01:15:42.823Z,82.05
2019-02-23T01:18:12.153Z,81.86
2019-02-23T01:20:58.818Z,82.54
2019-02-23T01:23:26.547Z,82.54
2019-02-23T01:26:13.234Z,82.31
2019-02-23T01:28:59.581Z,82.55
2019-02-23T01:31:48.640Z,82.55
2019-02-23T01:37:23.093Z,82.44
2019-02-23T01:39:53.172Z,82.54
2019-02-23T01:42:20.699Z,82.54
2019-02-23T01:45:07.022Z,82.73
2019-02-23T01:47:35.101Z,82.73
2019-02-23T01:50:02.932Z,82.35
2019-02-23T01:52:30.633Z,82.36
2019-02-23T01:54:58.283Z,82.39
2019-02-23T01:57:44.682Z,82.25
2019-02-23T02:00:12.250Z,82.25
2019-02-23T02:02:58.922Z,82.56
2019-02-23T02:05:26.374Z,82.61
2019-02-23T02:07:54.072Z,82.19
2019-02-23T02:10:21.740Z,82.19
2019-02-23T02:12:49.525Z,82.44
2019-02-23T02:15:17.093Z,82.39
2019-02-23T02:17:44.631Z,82.46
2019-02-23T02:20:12.203Z,82.46
2019-02-23T02:22:39.801Z,82.11
2019-02-23T02:25:07.408Z,82.11
2019-02-23T02:27:35.099Z,82.25
2019-02-23T02:30:21.502Z,82.25
2019-02-23T02:32:49.086Z,82.12
2019-02-23T02:38:21.872Z,82.00
2019-02-23T02:40:49.483Z,82.69
2019-02-23T02:43:35.877Z,82.42
2019-02-23T02:46:22.228Z,82.47
2019-02-23T02:49:08.834Z,82.31
2019-02-23T02:51:36.455Z,82.17
2019-02-23T02:54:04.093Z,82.17
2019-02-23T02:56:31.773Z,82.55
2019-02-23T02:59:18.097Z,82.25
2019-02-23T03:01:45.632Z,82.25
2019-02-23T03:04:13.403Z,82.52
2019-02-23T03:06:59.782Z,82.51
2019-02-23T03:09:27.466Z,81.97
2019-02-23T03:11:55.005Z,81.97
2019-02-23T03:14:41.362Z,82.32
2019-02-23T03:17:09.071Z,82.28
2019-02-23T03:19:36.748Z,82.28
2019-02-23T03:22:23.145Z,81.96
2019-02-23T03:24:50.902Z,82.29
2019-02-23T03:27:37.185Z,82.24
2019-02-23T03:30:04.863Z,82.07
2019-02-23T03:32:32.525Z,82.07
2019-02-23T03:35:18.844Z,82.79
2019-02-23T03:37:46.385Z,82.79
2019-02-23T03:40:14.148Z,82.57
2019-02-23T03:43:00.500Z,82.39
2019-02-23T03:45:28.425Z,82.39
2019-02-23T03:47:56.096Z,82.54
2019-02-23T03:50:23.851Z,82.60
2019-02-23T03:53:10.189Z,82.27
2019-02-23T03:55:56.545Z,82.71
2019-02-23T03:58:42.896Z,82.61
2019-02-23T04:01:10.500Z,82.11
2019-02-23T04:03:38.075Z,82.11
2019-02-23T04:06:24.500Z,82.66
2019-02-23T04:09:10.848Z,82.66
2019-02-23T04:11:57.549Z,82.40
2019-02-23T04:14:25.233Z,82.40
2019-02-23T04:17:13.308Z,82.38
2019-02-23T04:19:40.892Z,82.38
2019-02-23T04:22:08.425Z,82.80
2019-02-23T04:24:36.159Z,82.83
2019-02-23T04:27:24.181Z,82.66
2019-02-23T04:29:51.873Z,82.66
2019-02-23T04:32:19.528Z,82.76
2019-02-23T04:34:47.233Z,82.79
2019-02-23T04:37:14.832Z,82.82
2019-02-23T04:40:01.184Z,82.26
2019-02-23T04:42:47.570Z,82.47
2019-02-23T04:45:15.057Z,82.47
2019-02-23T04:48:01.407Z,82.73
2019-02-23T04:50:32.021Z,82.48
2019-02-23T04:53:18.710Z,82.92
2019-02-23T04:56:05.062Z,82.36
2019-02-23T04:58:51.663Z,83.14
2019-02-23T05:01:19.309Z,83.14
2019-02-23T05:03:47.486Z,83.66
2019-02-23T05:06:15.044Z,83.66
2019-02-23T05:08:42.699Z,83.25
2019-02-23T05:11:29.009Z,82.99
2019-02-23T05:13:56.870Z,83.62
2019-02-23T05:16:24.624Z,83.42
2019-02-23T05:18:52.193Z,82.92
2019-02-23T05:21:38.622Z,82.89
2019-02-23T05:24:06.144Z,82.89
2019-02-23T05:26:33.715Z,82.94
2019-02-23T05:29:32.120Z,82.84
2019-02-23T05:32:08.144Z,82.53
2019-02-23T05:34:54.534Z,82.65
2019-02-23T05:37:40.813Z,82.63
2019-02-23T05:40:08.407Z,82.63
2019-02-23T05:43:00.892Z,82.75
2019-02-23T05:45:23.913Z,82.77
2019-02-23T05:47:51.457Z,82.78
2019-02-23T05:50:19.149Z,82.79
2019-02-23T05:53:05.501Z,82.44
2019-02-23T05:55:33.202Z,82.44
2019-02-23T05:58:00.861Z,82.91
2019-02-23T06:00:28.611Z,82.91
2019-02-23T06:06:20.069Z,83.34
2019-02-23T06:08:48.125Z,83.34
2019-02-23T06:11:34.535Z,83.21
2019-02-23T06:14:02.087Z,83.21
2019-02-23T06:16:48.770Z,83.25
2019-02-23T06:19:16.243Z,83.44
2019-02-23T06:21:53.533Z,83.35
2019-02-23T06:24:31.879Z,83.46
2019-02-23T06:26:59.400Z,83.46
2019-02-23T06:29:26.998Z,83.47
2019-02-23T06:32:13.364Z,83.51
2019-02-23T06:34:41.127Z,83.52
2019-02-23T06:37:08.683Z,83.58
2019-02-23T06:39:36.654Z,83.63
2019-02-23T06:42:23.075Z,83.70
2019-02-23T06:45:09.450Z,83.71
2019-02-23T06:47:55.842Z,83.34
2019-02-23T06:50:42.163Z,83.34
2019-02-23T06:56:15.104Z,83.57
2019-02-23T06:58:42.582Z,83.57
2019-02-23T07:01:29.150Z,83.54
2019-02-23T07:03:56.770Z,83.12
2019-02-23T07:06:43.505Z,83.21
2019-02-23T07:09:25.222Z,83.11
2019-02-23T07:11:59.132Z,83.19
2019-02-23T07:14:26.621Z,82.86
2019-02-23T07:17:13.036Z,82.94
2019-02-23T07:19:44.215Z,82.94
2019-02-23T07:22:30.615Z,82.32
2019-02-23T07:24:58.153Z,82.15
2019-02-23T07:27:44.506Z,82.03
2019-02-23T07:30:30.878Z,81.95
2019-02-23T07:33:29.562Z,81.83
2019-02-23T07:35:46.537Z,81.69
2019-02-23T07:38:35.505Z,81.53
2019-02-23T07:41:02.941Z,81.37
2019-02-23T07:43:49.360Z,81.36
2019-02-23T07:46:18.915Z,81.36
2019-02-23T07:49:05.338Z,80.88
2019-02-23T07:51:33.221Z,80.72
2019-02-23T07:54:01.131Z,80.56
2019-02-23T07:56:47.502Z,80.43
2019-02-23T07:59:33.899Z,80.43
2019-02-23T08:02:01.545Z,79.40
2019-02-23T08:04:47.885Z,79.58
2019-02-23T08:07:15.428Z,79.58
2019-02-23T08:10:01.928Z,78.78
2019-02-23T08:12:29.580Z,78.78
2019-02-23T08:17:48.379Z,77.88
2019-02-23T08:25:54.183Z,77.88
2019-02-23T08:28:21.983Z,77.15
2019-02-23T08:30:49.611Z,77.15
2019-02-23T08:33:17.260Z,77.43
2019-02-23T08:36:03.613Z,77.43
2019-02-23T08:38:31.155Z,76.09
2019-02-23T08:41:17.545Z,76.09
2019-02-23T08:44:04.183Z,76.29
2019-02-23T08:46:52.226Z,76.03
2019-02-23T08:49:19.836Z,74.59
2019-02-23T08:51:47.654Z,74.59
2019-02-23T08:54:15.341Z,74.00
2019-02-23T08:56:42.922Z,73.37
2019-02-23T08:59:10.966Z,72.37
2019-02-23T09:01:38.496Z,73.07
2019-02-23T09:04:06.038Z,73.07
2019-02-23T09:06:52.395Z,72.38
2019-02-23T09:09:23.603Z,72.32
2019-02-23T09:12:10.178Z,72.29
2019-02-23T09:14:37.646Z,71.91
2019-02-23T09:17:07.141Z,71.91
2019-02-23T09:19:53.513Z,71.76
2019-02-23T09:22:21.109Z,71.60
2019-02-23T09:25:07.541Z,71.58
2019-02-23T09:27:35.101Z,71.56
2019-02-23T09:30:02.699Z,71.65
2019-02-23T09:32:49.803Z,71.65
2019-02-23T09:35:17.526Z,71.50
2019-02-23T09:38:03.902Z,71.50
2019-02-23T09:40:50.341Z,71.14
2019-02-23T09:46:06.184Z,70.75
2019-02-23T09:48:52.536Z,71.03
2019-02-23T09:51:20.055Z,71.03
2019-02-23T09:54:06.459Z,70.76
2019-02-23T09:56:33.964Z,70.57
2019-02-23T09:59:20.349Z,70.02
2019-02-23T10:01:47.878Z,70.02
2019-02-23T10:04:15.472Z,69.67
2019-02-23T10:07:01.894Z,69.03
2019-02-23T10:09:29.422Z,67.89
2019-02-23T10:12:15.831Z,67.89
2019-02-23T10:14:43.441Z,64.86
2019-02-23T10:17:29.856Z,62.52
2019-02-23T10:23:04.230Z,59.84
2019-02-23T10:25:31.932Z,56.82
2019-02-23T10:28:18.267Z,56.82
2019-02-23T10:30:45.896Z,55.14
2019-02-23T10:33:13.377Z,53.80
2019-02-23T10:35:59.823Z,52.71
2019-02-23T10:38:27.374Z,52.71
2019-02-23T10:41:06.694Z,52.70
2019-02-23T10:43:42.914Z,52.33
2019-02-23T10:46:10.559Z,52.32
2019-02-23T10:48:38.359Z,52.01
2019-02-23T10:51:05.836Z,52.15
2019-02-23T10:56:26.485Z,52.15
2019-02-23T10:58:54.135Z,52.15
2019-02-23T11:01:40.461Z,50.27
2019-02-23T11:04:08.163Z,50.27
2019-02-23T11:06:54.515Z,50.35
2019-02-23T11:12:29.472Z,50.13
2019-02-23T11:14:46.345Z,50.13
2019-02-23T11:17:32.777Z,50.04
2019-02-23T11:20:00.731Z,49.22
2019-02-23T11:22:28.348Z,49.22
2019-02-23T11:24:57.718Z,48.27
2019-02-23T11:27:25.317Z,47.54
2019-02-23T11:29:52.772Z,47.51
2019-02-23T11:32:22.588Z,47.51
2019-02-23T11:34:50.040Z,47.23
2019-02-23T11:37:17.630Z,47.32
2019-02-23T11:39:45.507Z,47.36
2019-02-23T11:42:13.048Z,47.54
2019-02-23T11:44:40.942Z,47.64
2019-02-23T11:47:08.420Z,47.90
2019-02-23T11:49:37.159Z,48.31
2019-02-23T11:52:04.761Z,48.91
2019-02-23T11:54:32.582Z,49.03
2019-02-23T11:57:00.592Z,49.23
2019-02-23T11:59:28.177Z,48.99
2019-02-23T12:01:57.041Z,48.30
2019-02-23T12:04:24.604Z,48.50
2019-02-23T12:06:52.182Z,48.88
2019-02-23T12:09:20.088Z,49.21
2019-02-23T12:11:49.277Z,49.24
2019-02-23T12:14:16.823Z,49.24
2019-02-23T12:16:46.744Z,49.45
2019-02-23T12:19:14.376Z,48.86
2019-02-23T12:21:43.073Z,48.34
2019-02-23T12:24:10.843Z,47.41
2019-02-23T12:26:38.447Z,46.10
2019-02-23T12:29:05.950Z,45.35
2019-02-23T12:31:36.593Z,45.39
2019-02-23T12:34:05.486Z,44.91
2019-02-23T12:36:36.635Z,43.93
2019-02-23T12:39:04.647Z,43.93
2019-02-23T12:41:35.677Z,43.74
2019-02-23T12:44:06.035Z,44.01
2019-02-23T12:46:33.861Z,44.10
2019-02-23T12:49:01.463Z,45.06
2019-02-23T12:51:28.976Z,45.61
2019-02-23T12:54:02.969Z,46.09
2019-02-23T12:56:32.723Z,46.06
2019-02-23T12:59:00.292Z,46.34
2019-02-23T13:01:31.015Z,46.57
2019-02-23T13:03:58.979Z,46.85
2019-02-23T13:06:26.524Z,47.11
2019-02-23T13:08:55.650Z,47.11
2019-02-23T13:11:23.524Z,47.43
2019-02-23T13:13:52.239Z,47.43
2019-02-23T13:16:20.056Z,47.76
2019-02-23T13:18:47.524Z,48.18
2019-02-23T13:21:15.139Z,48.18
2019-02-23T13:23:45.858Z,48.79
2019-02-23T13:26:13.371Z,49.34
2019-02-23T13:28:40.891Z,49.93
2019-02-23T13:31:11.948Z,50.52
2019-02-23T13:33:39.588Z,50.72
2019-02-23T13:36:10.039Z,50.72
2019-02-23T13:38:37.914Z,50.98
2019-02-23T13:41:05.466Z,50.79
2019-02-23T13:43:34.439Z,50.48
2019-02-23T13:46:02.315Z,50.45
2019-02-23T13:48:29.829Z,50.56
2019-02-23T13:50:57.368Z,50.78
2019-02-23T13:53:25.969Z,50.54
2019-02-23T13:55:53.839Z,51.01
2019-02-23T13:58:21.357Z,51.47
2019-02-23T14:00:49.236Z,51.47
2019-02-23T14:03:16.858Z,51.62
2019-02-23T14:05:44.407Z,51.56
2019-02-23T14:08:13.364Z,51.49
2019-02-23T14:10:40.886Z,51.39
2019-02-23T14:13:08.493Z,51.27
2019-02-23T14:15:36.312Z,51.54
2019-02-23T14:18:07.838Z,52.10
2019-02-23T14:20:38.190Z,52.33
2019-02-23T14:23:06.409Z,52.18
2019-02-23T14:25:36.820Z,52.13
2019-02-23T14:28:06.621Z,52.13
2019-02-23T14:30:34.187Z,51.62
2019-02-23T14:33:02.120Z,50.92
2019-02-23T14:35:29.652Z,50.53
2019-02-23T14:37:57.443Z,50.53
2019-02-23T14:40:25.060Z,50.41
2019-02-23T14:42:52.645Z,50.34
2019-02-23T14:45:27.755Z,50.34
2019-02-23T14:47:56.800Z,50.25
2019-02-23T14:50:26.662Z,49.75
2019-02-23T14:52:56.550Z,49.75
2019-02-23T14:55:30.052Z,50.12
2019-02-23T14:58:00.568Z,49.94
2019-02-23T15:00:28.158Z,50.02
2019-02-23T15:02:58.466Z,50.02
2019-02-23T15:05:26.291Z,48.70
2019-02-23T15:07:53.915Z,48.50
2019-02-23T15:10:21.459Z,48.50
2019-02-23T15:12:52.403Z,48.70
2019-02-23T15:15:20.252Z,48.57
2019-02-23T15:17:50.175Z,48.57
2019-02-23T15:20:17.700Z,48.82
2019-02-23T15:22:45.318Z,49.74
2019-02-23T15:25:13.615Z,49.13
2019-02-23T15:27:41.248Z,49.13
2019-02-23T15:30:08.853Z,49.50
2019-02-23T15:32:40.092Z,49.50
2019-02-23T15:35:10.397Z,48.20
2019-02-23T15:37:46.139Z,47.63
2019-02-23T15:40:14.027Z,47.63
2019-02-23T15:42:43.240Z,46.24
2019-02-23T15:45:17.977Z,45.36
2019-02-23T15:47:48.578Z,46.59
2019-02-23T15:50:22.017Z,48.46
2019-02-23T15:52:49.651Z,48.46
2019-02-23T15:55:25.894Z,49.74
2019-02-23T15:57:59.542Z,51.19
2019-02-23T16:00:30.278Z,52.18
2019-02-23T16:03:00.829Z,53.23
2019-02-23T16:05:28.380Z,54.57
2019-02-23T16:07:56.225Z,55.49
2019-02-23T16:10:24.430Z,55.49
2019-02-23T16:12:52.173Z,55.60
2019-02-23T16:15:21.278Z,55.93
2019-02-23T16:17:52.012Z,56.02
2019-02-23T16:20:19.675Z,55.83
2019-02-23T16:22:47.546Z,55.83
2019-02-23T16:25:16.922Z,55.71
2019-02-23T16:27:44.445Z,55.32
2019-02-23T16:30:12.348Z,55.32
2019-02-23T16:32:45.036Z,55.01
2019-02-23T16:35:22.434Z,55.01
2019-02-23T16:37:49.581Z,54.78
2019-02-23T16:40:22.440Z,54.78
2019-02-23T16:42:52.692Z,55.57
2019-02-23T16:45:20.741Z,55.57
2019-02-23T16:47:50.210Z,55.64
2019-02-23T16:50:17.520Z,55.88
2019-02-23T16:52:50.318Z,56.84
2019-02-23T16:55:17.852Z,56.48
2019-02-23T16:57:45.343Z,56.88
2019-02-23T17:00:13.217Z,57.62
2019-02-23T17:02:42.820Z,57.62
2019-02-23T17:05:10.037Z,57.66
2019-02-23T17:07:37.845Z,58.04
2019-02-23T17:10:05.436Z,58.37
2019-02-23T17:12:33.155Z,58.71
2019-02-23T17:15:05.109Z,58.71
2019-02-23T17:17:32.658Z,59.20
2019-02-23T17:20:02.948Z,59.41
2019-02-23T17:22:33.569Z,59.62
2019-02-23T17:25:03.902Z,59.85
2019-02-23T17:27:36.443Z,60.06
2019-02-23T17:30:05.403Z,60.30
2019-02-23T17:32:43.384Z,60.52
2019-02-23T17:35:11.136Z,61.06
2019-02-23T17:37:40.939Z,61.06
2019-02-23T17:40:16.890Z,61.12
2019-02-23T17:42:44.785Z,61.32
2019-02-23T17:45:12.323Z,61.29
2019-02-23T17:47:39.872Z,61.29
2019-02-23T17:50:11.263Z,61.96
2019-02-23T17:52:38.737Z,61.96
2019-02-23T17:55:06.355Z,62.05
2019-02-23T17:57:36.287Z,62.15
2019-02-23T18:00:05.972Z,62.23
2019-02-23T18:02:33.487Z,62.28
2019-02-23T18:05:01.270Z,62.40
2019-02-23T18:07:33.885Z,62.40
2019-02-23T18:10:03.499Z,62.58
2019-02-23T18:12:31.240Z,63.08
2019-02-23T18:15:01.810Z,63.08
2019-02-23T18:17:29.308Z,62.81
2019-02-23T18:20:01.332Z,62.72
2019-02-23T18:22:31.266Z,62.70
2019-02-23T18:25:17.635Z,62.50
2019-02-23T18:31:09.198Z,62.93
2019-02-23T18:33:36.878Z,62.08
2019-02-23T18:36:23.205Z,62.08
2019-02-23T18:38:50.870Z,62.63
2019-02-23T18:41:37.143Z,62.72
2019-02-23T18:44:23.986Z,62.74
2019-02-23T18:47:11.566Z,62.74
2019-02-23T18:49:58.549Z,62.49
2019-02-23T18:52:44.983Z,62.49
2019-02-23T18:55:12.657Z,63.18
2019-02-23T18:58:11.471Z,63.18
2019-02-23T19:03:42.726Z,62.97
2019-02-23T19:06:29.150Z,62.53
2019-02-23T19:09:15.534Z,62.53
2019-02-23T19:12:14.219Z,62.86
2019-02-23T19:14:50.047Z,62.86
2019-02-23T19:17:50.313Z,62.79
2019-02-23T19:20:26.378Z,63.09
2019-02-23T19:23:12.778Z,62.87
2019-02-23T19:25:59.138Z,62.51
2019-02-23T19:28:28.454Z,63.08
2019-02-23T19:31:14.821Z,63.08
2019-02-23T19:33:42.421Z,63.56
2019-02-23T19:38:59.891Z,63.17
2019-02-23T19:41:58.623Z,63.17
2019-02-23T19:47:08.990Z,63.05
2019-02-23T19:49:38.717Z,63.05
2019-02-23T19:52:26.824Z,63.19
2019-02-23T19:55:13.210Z,63.19
2019-02-23T19:58:01.896Z,63.50
2019-02-23T20:00:29.416Z,63.95
2019-02-23T20:03:15.845Z,63.95
2019-02-23T20:05:43.484Z,63.72
2019-02-23T20:08:30.793Z,63.84
2019-02-23T20:10:58.379Z,63.91
2019-02-23T20:13:46.424Z,64.33
2019-02-23T20:16:14.031Z,64.33
2019-02-23T20:19:00.433Z,64.15
2019-02-23T20:27:07.560Z,64.12
2019-02-23T20:29:53.965Z,63.94
2019-02-23T20:32:21.616Z,63.94
2019-02-23T20:34:49.606Z,64.11
2019-02-23T20:40:22.715Z,64.39
2019-02-23T20:43:09.072Z,64.58
2019-02-23T20:45:36.636Z,64.21
2019-02-23T20:48:23.041Z,64.91
2019-02-23T20:50:54.894Z,64.91
2019-02-23T20:53:41.247Z,64.83
2019-02-23T20:56:11.125Z,64.83
2019-02-23T20:58:57.938Z,64.48
2019-02-23T21:01:25.692Z,64.48
2019-02-23T21:04:13.768Z,64.73
2019-02-23T21:06:41.314Z,64.73
2019-02-23T21:09:29.375Z,64.49
2019-02-23T21:12:08.755Z,64.43
2019-02-23T21:14:26.767Z,64.45
2019-02-23T21:16:54.348Z,64.57
2019-02-23T21:19:21.906Z,65.39
2019-02-23T21:22:08.300Z,65.63
2019-02-23T21:24:54.577Z,65.94
2019-02-23T21:27:40.934Z,65.94
2019-02-23T21:30:10.798Z,65.81
2019-02-23T21:32:57.197Z,65.59
2019-02-23T21:35:24.959Z,65.59
2019-02-23T21:38:11.361Z,65.74
2019-02-23T21:40:38.857Z,65.74
2019-02-23T21:43:06.371Z,65.28
2019-02-23T21:45:36.890Z,65.28
2019-02-23T21:48:04.473Z,65.21
2019-02-23T21:50:32.024Z,65.12
2019-02-23T21:52:59.881Z,64.64
2019-02-23T21:55:27.406Z,64.94
2019-02-23T21:57:55.013Z,64.75
2019-02-23T22:00:41.370Z,64.94
2019-02-23T22:03:08.934Z,64.94
2019-02-23T22:05:55.623Z,64.94
2019-02-23T22:08:23.285Z,64.96
2019-02-23T22:11:09.721Z,64.90
2019-02-23T22:13:37.357Z,64.90
2019-02-23T22:16:23.790Z,65.64
2019-02-23T22:21:43.642Z,65.03
2019-02-23T22:24:42.320Z,65.54
2019-02-23T22:27:18.077Z,65.48
2019-02-23T22:30:04.413Z,65.78
2019-02-23T22:32:50.817Z,65.78
2019-02-23T22:35:18.494Z,65.60
2019-02-23T22:38:08.645Z,65.69
2019-02-23T22:40:36.201Z,65.75
2019-02-23T22:43:22.605Z,65.79
2019-02-23T22:45:50.528Z,65.61
2019-02-23T22:48:36.903Z,65.61
2019-02-23T22:51:04.518Z,65.69
2019-02-23T22:53:33.874Z,65.38
2019-02-23T22:56:20.191Z,65.38
2019-02-23T22:59:06.623Z,65.15
2019-02-23T23:01:53.420Z,65.15
2019-02-23T23:04:40.178Z,65.19
2019-02-23T23:07:26.591Z,65.19
2019-02-23T23:10:25.081Z,64.89
2019-02-23T23:13:01.039Z,65.24
2019-02-23T23:15:47.444Z,64.50
2019-02-23T23:18:33.711Z,65.20
2019-02-23T23:21:20.027Z,64.76
2019-02-23T23:24:06.380Z,64.45
2019-02-23T23:26:55.547Z,65.03
2019-02-23T23:29:41.972Z,65.36
2019-02-23T23:35:14.788Z,64.99
2019-02-23T23:38:01.545Z,65.65
2019-02-23T23:40:47.968Z,65.08
2019-02-23T23:43:15.741Z,64.97
2019-02-23T23:46:02.162Z,65.55
2019-02-23T23:48:31.107Z,65.55
2019-02-23T23:51:17.508Z,65.39
2019-02-23T23:59:29.494Z,65.20
